KEST/EST METAR and TAF weather

Enter ICAO airport designator
Station Type Date Time Source
KEST METAR 2018/12/13 05:52 UTC NOAA

KEST 130552Z AUTO 15012KT 1/2SM FZFG VV002 M02/M03 A2981 RMK AO2 SLP112 I1003 I6006 T10221028 11022 21028 410171117 50003


Station Type Date Time Source
KEST Decoded METAR 2018/12/13 05:52 UTC NOAA

ESTHERVILLE MUNICIPAL AIRPORT , IA, United States (KEST) 43-24N 94-45W 401M
Dec 13, 2018 - 12:52 AM EST / 2018.12.13 0552 UTC
Wind: from the SSE (150 degrees) at 14 MPH (12 KT):0
Visibility: 1/2 mile(s):0
Sky conditions: obscured
Weather: freezing fog
Temperature: 28.0 F (-2.2 C)
Windchill: 17 F (-8 C):1
Dew Point: 27.0 F (-2.8 C)
Relative Humidity: 95%
Pressure (altimeter): 29.81 in. Hg (1009 hPa)
Pressure tendency: 0.01 inches (0.3 hPa) higher than three hours ago
ob: KEST 130552Z AUTO 15012KT 1/2SM FZFG VV002 M02/M03 A2981 RMK AO2 SLP112 I1003 I6006 T10221028 11022 21028 410171117 50003
cycle: 6

Station Type Date Time Source
KEST TAF UTC NOAA

Error!


Example: see airport list